Time;durP1;ratioP1;P1;durP2;ratioP2;P2;SDS_P1;SDS_P2;PMS_P1;PMS_P2;Temp;Humidity;BMP_temperature;BMP_pressure;BME280_temperature;BME280_humidity;BME280_pressure;Samples;Min_cycle;Max_cycle;Signal;HPM_P1;HPM_P2
2023/06/26 00:02:19;;;;;;;20.67;16.48;;;;;;;;;;5071736;28;20503;-52
2023/06/26 00:04:45;;;;;;;24.02;18.77;;;;;;;;;;5070359;28;20016;-52
2023/06/26 00:07:11;;;;;;;19.33;14.95;;;;;;;;;;5071797;28;20082;-54
2023/06/26 00:09:37;;;;;;;22.17;16.83;;;;;;;;;;5071845;28;20073;-58
2023/06/26 00:12:04;;;;;;;21.30;16.08;;;;;;;;;;5071526;28;20028;-55
2023/06/26 00:14:30;;;;;;;21.90;16.85;;;;;;;;;;5071401;28;20024;-51
2023/06/26 00:16:56;;;;;;;20.67;15.43;;;;;;;;;;5071560;28;20459;-56
2023/06/26 00:19:22;;;;;;;20.42;15.80;;;;;;;;;;5071557;28;20112;-56
2023/06/26 00:21:48;;;;;;;20.33;15.88;;;;;;;;;;5071375;28;20032;-55
2023/06/26 00:24:14;;;;;;;20.40;15.20;;;;;;;;;;5071426;28;20035;-54
2023/06/26 00:26:40;;;;;;;20.17;14.60;;;;;;;;;;5071392;28;20051;-52
2023/06/26 00:29:06;;;;;;;19.77;14.63;;;;;;;;;;5071333;28;20025;-52
2023/06/26 00:31:32;;;;;;;19.85;15.18;;;;;;;;;;5071102;28;20020;-53
2023/06/26 00:33:58;;;;;;;19.55;15.13;;;;;;;;;;5071502;28;20091;-54
2023/06/26 00:36:26;;;;;;;21.70;15.85;;;;;;;;;;5071327;28;20039;-52
2023/06/26 00:38:52;;;;;;;25.05;15.30;;;;;;;;;;5071661;28;20087;-53
2023/06/26 00:41:18;;;;;;;20.77;15.38;;;;;;;;;;5074217;28;20476;-52
2023/06/26 00:43:44;;;;;;;20.77;15.43;;;;;;;;;;5075542;28;20071;-51
2023/06/26 00:46:11;;;;;;;20.95;15.15;;;;;;;;;;5074118;28;20480;-53
2023/06/26 00:48:37;;;;;;;19.55;14.50;;;;;;;;;;5071501;28;20033;-55
2023/06/26 00:51:03;;;;;;;19.85;14.15;;;;;;;;;;5055264;28;20035;-53
2023/06/26 00:53:29;;;;;;;19.85;14.85;;;;;;;;;;5055153;28;20048;-55
2023/06/26 00:55:55;;;;;;;20.85;14.95;;;;;;;;;;5054771;28;20079;-53
2023/06/26 00:58:24;;;;;;;19.92;14.70;;;;;;;;;;5055208;28;20519;-57
2023/06/26 01:00:51;;;;;;;22.20;15.65;;;;;;;;;;5053798;28;20401;-53
2023/06/26 01:03:17;;;;;;;23.00;15.73;;;;;;;;;;5055107;28;20591;-55
2023/06/26 01:05:45;;;;;;;21.15;15.60;;;;;;;;;;5054739;28;20025;-54
2023/06/26 01:08:13;;;;;;;20.35;15.45;;;;;;;;;;5053758;28;20115;-53
2023/06/26 01:10:39;;;;;;;20.80;15.07;;;;;;;;;;5054959;28;20057;-53
2023/06/26 01:13:05;;;;;;;20.83;15.15;;;;;;;;;;5054970;28;20052;-52
2023/06/26 01:15:31;;;;;;;20.42;15.27;;;;;;;;;;5054664;28;20021;-50
2023/06/26 01:18:03;;;;;;;21.27;16.05;;;;;;;;;;5054787;28;20033;-54
2023/06/26 01:20:29;;;;;;;19.63;14.93;;;;;;;;;;5054753;28;20033;-55
2023/06/26 01:23:14;;;;;;;21.20;14.65;;;;;;;;;;5053977;28;20110;-56
2023/06/26 01:25:59;;;;;;;20.95;14.57;;;;;;;;;;5055109;28;20033;-56
2023/06/26 01:28:25;;;;;;;19.63;15.13;;;;;;;;;;5056103;28;20412;-56
2023/06/26 01:30:51;;;;;;;22.00;16.77;;;;;;;;;;5055691;28;20040;-54
2023/06/26 01:33:17;;;;;;;22.33;15.90;;;;;;;;;;5055765;28;20064;-55
2023/06/26 01:35:44;;;;;;;19.65;15.10;;;;;;;;;;5055195;28;20029;-55
2023/06/26 01:38:17;;;;;;;21.90;15.77;;;;;;;;;;5054629;28;20098;-57
2023/06/26 01:40:46;;;;;;;21.02;14.80;;;;;;;;;;5054648;28;20029;-56
2023/06/26 01:43:30;;;;;;;22.58;14.95;;;;;;;;;;5054280;28;20545;-55
2023/06/26 01:46:00;;;;;;;25.90;20.10;;;;;;;;;;5054134;28;20113;-52
2023/06/26 01:48:29;;;;;;;20.48;15.82;;;;;;;;;;5054206;28;20025;-53
2023/06/26 01:50:57;;;;;;;21.02;15.57;;;;;;;;;;5053300;28;20044;-56
2023/06/26 01:53:25;;;;;;;20.77;16.40;;;;;;;;;;5054243;28;20032;-53
2023/06/26 01:55:51;;;;;;;;;;;;;;;;;;5054232;28;20100;-57
2023/06/26 01:58:20;;;;;;;21.10;15.93;;;;;;;;;;5052939;28;20262;-54
2023/06/26 02:00:46;;;;;;;20.10;15.27;;;;;;;;;;5054122;28;20020;-54
2023/06/26 02:03:12;;;;;;;19.23;14.40;;;;;;;;;;5053893;28;20048;-54
2023/06/26 02:05:38;;;;;;;20.88;15.85;;;;;;;;;;5053636;28;20103;-56
2023/06/26 02:08:04;;;;;;;20.42;15.68;;;;;;;;;;5053620;28;20033;-54
2023/06/26 02:10:31;;;;;;;21.70;14.98;;;;;;;;;;5053614;28;20071;-57
2023/06/26 02:12:57;;;;;;;19.95;14.60;;;;;;;;;;5053792;28;20465;-56
2023/06/26 02:15:23;;;;;;;20.33;15.45;;;;;;;;;;5053719;28;20103;-56
2023/06/26 02:17:49;;;;;;;20.38;15.50;;;;;;;;;;5054003;28;20020;-56
2023/06/26 02:20:15;;;;;;;21.77;15.35;;;;;;;;;;5053796;28;20025;-56
2023/06/26 02:22:42;;;;;;;21.85;15.25;;;;;;;;;;5053460;28;20117;-55
2023/06/26 02:25:08;;;;;;;20.27;14.98;;;;;;;;;;5053287;28;20057;-54
2023/06/26 02:27:34;;;;;;;19.17;14.60;;;;;;;;;;5053398;28;20037;-54
2023/06/26 02:30:00;;;;;;;21.52;14.75;;;;;;;;;;5052145;28;20074;-57
2023/06/26 02:32:26;;;;;;;20.85;14.95;;;;;;;;;;5052009;28;20025;-54
2023/06/26 02:34:52;;;;;;;19.77;14.82;;;;;;;;;;5053210;28;20431;-55
2023/06/26 02:37:18;;;;;;;21.98;15.30;;;;;;;;;;5053678;28;20160;-55
2023/06/26 02:39:44;;;;;;;21.52;15.88;;;;;;;;;;5053368;28;20029;-55
2023/06/26 02:42:10;;;;;;;22.80;15.25;;;;;;;;;;5053248;28;20397;-55
2023/06/26 02:44:36;;;;;;;21.02;15.93;;;;;;;;;;5051775;28;20029;-54
2023/06/26 02:47:02;;;;;;;21.33;15.77;;;;;;;;;;5053112;28;20025;-53
2023/06/26 02:49:28;;;;;;;22.35;15.95;;;;;;;;;;5053133;28;20087;-53
2023/06/26 02:51:54;;;;;;;20.75;15.45;;;;;;;;;;5053042;28;20409;-58
2023/06/26 02:54:20;;;;;;;21.67;15.07;;;;;;;;;;5052738;28;20040;-56
2023/06/26 02:56:46;;;;;;;22.08;15.18;;;;;;;;;;5052975;28;20029;-53
2023/06/26 02:59:13;;;;;;;20.95;15.70;;;;;;;;;;5051526;28;20027;-56
2023/06/26 03:01:39;;;;;;;20.00;14.52;;;;;;;;;;5052793;28;20025;-56
2023/06/26 03:04:05;;;;;;;22.13;15.30;;;;;;;;;;5052428;28;20044;-55
2023/06/26 03:06:31;;;;;;;21.05;15.43;;;;;;;;;;5052466;28;20104;-53
2023/06/26 03:08:57;;;;;;;20.85;15.65;;;;;;;;;;5052839;28;20025;-52
2023/06/26 03:11:23;;;;;;;21.17;15.82;;;;;;;;;;5052558;28;20047;-55
2023/06/26 03:13:49;;;;;;;21.42;15.32;;;;;;;;;;5051274;28;20025;-54
2023/06/26 03:16:15;;;;;;;22.17;15.23;;;;;;;;;;5052454;28;20021;-54
2023/06/26 03:18:41;;;;;;;25.30;15.13;;;;;;;;;;5052415;28;20128;-54
2023/06/26 03:21:09;;;;;;;20.45;15.18;;;;;;;;;;5052425;28;20025;-56
2023/06/26 03:23:35;;;;;;;;;;;;;;;;;;5052523;28;20047;-54
2023/06/26 03:26:01;;;;;;;20.42;14.82;;;;;;;;;;5052392;28;19905;-54
2023/06/26 03:28:27;;;;;;;20.55;16.05;;;;;;;;;;5052171;28;20104;-56
2023/06/26 03:30:53;;;;;;;20.08;14.25;;;;;;;;;;5052168;28;20032;-55
2023/06/26 03:33:19;;;;;;;20.38;15.20;;;;;;;;;;5052051;28;20033;-54
2023/06/26 03:35:45;;;;;;;21.17;15.43;;;;;;;;;;5051424;28;20116;-51
2023/06/26 03:38:11;;;;;;;24.00;14.75;;;;;;;;;;5052188;28;20384;-55
2023/06/26 03:40:37;;;;;;;21.42;15.55;;;;;;;;;;5052204;28;20025;-55
2023/06/26 03:43:03;;;;;;;20.45;14.75;;;;;;;;;;5051951;28;20040;-56
2023/06/26 03:45:29;;;;;;;22.13;15.13;;;;;;;;;;5051738;28;20013;-53
2023/06/26 03:47:55;;;;;;;20.33;14.15;;;;;;;;;;5051585;28;20032;-50
2023/06/26 03:50:21;;;;;;;21.75;15.60;;;;;;;;;;5051944;28;20478;-58
2023/06/26 03:52:47;;;;;;;23.35;14.85;;;;;;;;;;5051779;28;20032;-54
2023/06/26 03:55:13;;;;;;;21.45;15.85;;;;;;;;;;5051662;28;20024;-54
2023/06/26 03:57:39;;;;;;;21.20;14.95;;;;;;;;;;5051818;28;20094;-57
2023/06/26 04:00:08;;;;;;;22.55;16.33;;;;;;;;;;5050768;28;20029;-55
2023/06/26 04:02:34;;;;;;;;;;;;;;;;;;5052221;28;20531;-57
2023/06/26 04:05:00;;;;;;;22.40;15.13;;;;;;;;;;5051363;28;19909;-58
2023/06/26 04:07:26;;;;;;;23.30;16.15;;;;;;;;;;5051459;28;20032;-55
2023/06/26 04:09:52;;;;;;;20.10;14.43;;;;;;;;;;5050211;28;20078;-55
2023/06/26 04:12:18;;;;;;;20.17;15.00;;;;;;;;;;5051622;28;20025;-53
2023/06/26 04:14:44;;;;;;;20.88;15.38;;;;;;;;;;5051082;28;20025;-55
2023/06/26 04:17:10;;;;;;;20.50;15.20;;;;;;;;;;5051613;28;20108;-56
2023/06/26 04:19:36;;;;;;;22.10;14.88;;;;;;;;;;5051337;28;20522;-55
2023/06/26 04:22:02;;;;;;;19.85;14.45;;;;;;;;;;5051338;28;20029;-53
2023/06/26 04:24:28;;;;;;;19.80;15.10;;;;;;;;;;5051189;28;20059;-58
2023/06/26 04:26:56;;;;;;;20.67;15.40;;;;;;;;;;5051136;28;20045;-54
2023/06/26 04:29:25;;;;;;;23.90;16.08;;;;;;;;;;5050911;28;20028;-54
2023/06/26 04:31:51;;;;;;;21.77;15.07;;;;;;;;;;5050950;28;20039;-53
2023/06/26 04:34:17;;;;;;;22.92;15.40;;;;;;;;;;5049891;28;20439;-57
2023/06/26 04:36:47;;;;;;;22.15;16.25;;;;;;;;;;5050946;28;20096;-54
2023/06/26 04:39:14;;;;;;;22.23;16.10;;;;;;;;;;5051061;28;20485;-54
2023/06/26 04:41:40;;;;;;;22.23;15.52;;;;;;;;;;5049961;28;20619;-52
2023/06/26 04:44:06;;;;;;;22.50;15.50;;;;;;;;;;5050907;28;20048;-56
2023/06/26 04:46:32;;;;;;;22.13;15.82;;;;;;;;;;5051364;28;20102;-54
2023/06/26 04:48:58;;;;;;;22.33;14.77;;;;;;;;;;5051177;28;20508;-55
2023/06/26 04:51:26;;;;;;;20.98;15.60;;;;;;;;;;5051112;28;20025;-55
2023/06/26 04:53:52;;;;;;;21.90;15.00;;;;;;;;;;5050810;28;20017;-53
2023/06/26 04:56:18;;;;;;;24.05;15.63;;;;;;;;;;5050882;28;20021;-52
2023/06/26 04:58:44;;;;;;;21.65;15.07;;;;;;;;;;5049390;28;20122;-55
2023/06/26 05:01:13;;;;;;;21.58;14.82;;;;;;;;;;5051018;28;20045;-55
2023/06/26 05:03:39;;;;;;;23.50;16.00;;;;;;;;;;5051027;28;20047;-55
2023/06/26 05:06:05;;;;;;;22.42;15.57;;;;;;;;;;5050877;28;20079;-56
2023/06/26 05:08:31;;;;;;;23.67;16.08;;;;;;;;;;5050882;28;20033;-55
2023/06/26 05:10:58;;;;;;;20.95;15.38;;;;;;;;;;5050827;28;20128;-52
2023/06/26 05:13:24;;;;;;;21.00;15.95;;;;;;;;;;5050655;28;20432;-53
2023/06/26 05:15:51;;;;;;;22.77;17.33;;;;;;;;;;5049286;28;20029;-51
2023/06/26 05:18:17;;;;;;;20.52;15.23;;;;;;;;;;5050691;28;20025;-57
2023/06/26 05:20:43;;;;;;;23.63;16.23;;;;;;;;;;5050695;28;20056;-53
2023/06/26 05:23:11;;;;;;;22.80;15.88;;;;;;;;;;5051732;28;20033;-55
2023/06/26 05:25:37;;;;;;;22.02;16.45;;;;;;;;;;5050541;28;20105;-51
2023/06/26 05:28:05;;;;;;;22.45;16.33;;;;;;;;;;5053003;28;20029;-51
2023/06/26 05:30:31;;;;;;;23.55;16.25;;;;;;;;;;5054548;28;20017;-52
2023/06/26 05:33:00;;;;;;;24.50;17.38;;;;;;;;;;5054048;28;20017;-54
2023/06/26 05:35:28;;;;;;;22.25;17.45;;;;;;;;;;5054149;28;20477;-50
2023/06/26 05:37:55;;;;;;;23.98;16.40;;;;;;;;;;5054317;28;20025;-55
2023/06/26 05:40:21;;;;;;;21.55;16.27;;;;;;;;;;5054185;28;20025;-55
2023/06/26 05:42:47;;;;;;;20.75;16.73;;;;;;;;;;5054071;28;20091;-56
2023/06/26 05:45:13;;;;;;;22.33;16.92;;;;;;;;;;5054063;28;20029;-55
2023/06/26 05:47:39;;;;;;;23.00;17.33;;;;;;;;;;5054312;28;20025;-56
2023/06/26 05:50:06;;;;;;;21.45;16.38;;;;;;;;;;5054324;28;20029;-55
2023/06/26 05:52:32;;;;;;;23.98;16.70;;;;;;;;;;5054159;28;20549;-56
2023/06/26 05:54:59;;;;;;;21.35;15.88;;;;;;;;;;5053945;28;20554;-56
2023/06/26 05:57:27;;;;;;;22.58;16.45;;;;;;;;;;5053975;28;20033;-56
2023/06/26 05:59:53;;;;;;;22.20;16.42;;;;;;;;;;5054174;28;20507;-52
2023/06/26 06:02:19;;;;;;;23.77;16.35;;;;;;;;;;5053555;28;20107;-50
2023/06/26 06:04:45;;;;;;;22.33;16.25;;;;;;;;;;5053583;28;20032;-57
2023/06/26 06:07:12;;;;;;;24.05;16.65;;;;;;;;;;5053519;28;20021;-54
2023/06/26 06:09:37;;;;;;;22.17;16.52;;;;;;;;;;5052425;28;20429;-52
2023/06/26 06:12:05;;;;;;;21.05;15.48;;;;;;;;;;5053636;28;20075;-57
2023/06/26 06:14:31;;;;;;;21.00;14.70;;;;;;;;;;5053480;28;20489;-53
2023/06/26 06:16:57;;;;;;;20.73;15.82;;;;;;;;;;5053450;28;20017;-53
2023/06/26 06:19:23;;;;;;;22.13;14.40;;;;;;;;;;5053195;28;20029;-53
2023/06/26 06:21:49;;;;;;;23.40;15.52;;;;;;;;;;5053394;28;20036;-54
2023/06/26 06:24:15;;;;;;;20.80;14.18;;;;;;;;;;5052930;28;20017;-57
2023/06/26 06:26:41;;;;;;;22.48;14.65;;;;;;;;;;5051941;28;20354;-53
2023/06/26 06:29:07;;;;;;;21.40;13.50;;;;;;;;;;5053290;28;20533;-54
2023/06/26 06:31:33;;;;;;;23.30;15.48;;;;;;;;;;5053065;28;20033;-53
2023/06/26 06:33:59;;;;;;;21.63;13.95;;;;;;;;;;5052837;28;20381;-56
2023/06/26 06:36:25;;;;;;;20.15;13.07;;;;;;;;;;5053097;28;20087;-57
2023/06/26 06:38:51;;;;;;;20.55;12.98;;;;;;;;;;5052493;28;20120;-56
2023/06/26 06:41:17;;;;;;;21.67;13.60;;;;;;;;;;5052861;28;20550;-54
2023/06/26 06:43:43;;;;;;;20.92;14.80;;;;;;;;;;5053033;28;20400;-55
2023/06/26 06:46:09;;;;;;;21.25;12.43;;;;;;;;;;5052685;28;20025;-54
2023/06/26 06:48:35;;;;;;;20.85;12.98;;;;;;;;;;5052775;28;20037;-52
2023/06/26 06:51:02;;;;;;;21.10;12.90;;;;;;;;;;5052578;28;20032;-51
2023/06/26 06:53:27;;;;;;;19.48;13.00;;;;;;;;;;5052644;28;20028;-51
2023/06/26 06:55:53;;;;;;;22.35;12.52;;;;;;;;;;5057224;28;20025;-50
2023/06/26 06:58:19;;;;;;;19.65;12.73;;;;;;;;;;5068090;28;20078;-54
2023/06/26 07:00:46;;;;;;;20.77;12.95;;;;;;;;;;5072524;28;20027;-55
2023/06/26 07:03:12;;;;;;;20.08;11.90;;;;;;;;;;5063680;28;20035;-56
2023/06/26 07:05:38;;;;;;;20.90;12.38;;;;;;;;;;5052029;28;20020;-56
2023/06/26 07:08:04;;;;;;;26.13;13.00;;;;;;;;;;5052428;28;20040;-53
2023/06/26 07:10:30;;;;;;;26.05;12.32;;;;;;;;;;5052211;28;20098;-56
2023/06/26 07:12:56;;;;;;;20.73;12.27;;;;;;;;;;5070552;28;20024;-57
2023/06/26 07:15:22;;;;;;;24.80;13.30;;;;;;;;;;5072024;28;20024;-53
2023/06/26 07:17:48;;;;;;;22.85;12.57;;;;;;;;;;5070807;28;20051;-53
2023/06/26 07:20:17;;;;;;;23.67;12.23;;;;;;;;;;5072101;28;20032;-56
2023/06/26 07:22:47;;;;;;;22.23;12.65;;;;;;;;;;5071995;28;20089;-57
2023/06/26 07:25:13;;;;;;;23.95;13.07;;;;;;;;;;5071968;28;20024;-53
2023/06/26 07:27:40;;;;;;;27.00;13.15;;;;;;;;;;5071773;28;20511;-53
2023/06/26 07:30:08;;;;;;;21.60;12.98;;;;;;;;;;5052583;28;20490;-52
2023/06/26 07:32:34;;;;;;;24.20;12.10;;;;;;;;;;5051645;28;20044;-53
2023/06/26 07:35:00;;;;;;;21.55;13.02;;;;;;;;;;5051615;28;20067;-51
2023/06/26 07:37:26;;;;;;;23.48;12.88;;;;;;;;;;5050492;28;20032;-54
2023/06/26 07:39:52;;;;;;;22.85;12.50;;;;;;;;;;5051783;28;20381;-50
2023/06/26 07:42:18;;;;;;;23.73;12.95;;;;;;;;;;5051665;28;20492;-63
2023/06/26 07:44:44;;;;;;;25.50;13.45;;;;;;;;;;5051152;28;20040;-54
2023/06/26 07:47:11;;;;;;;23.60;13.55;;;;;;;;;;5051637;28;20190;-52
2023/06/26 07:49:38;;;;;;;20.35;13.30;;;;;;;;;;5050776;28;20033;-52
2023/06/26 07:52:05;;;;;;;28.02;13.85;;;;;;;;;;5051443;28;20035;-54
2023/06/26 07:54:31;;;;;;;27.60;14.60;;;;;;;;;;5051429;28;20037;-56
2023/06/26 07:56:57;;;;;;;22.88;13.25;;;;;;;;;;5051480;28;20017;-54
2023/06/26 07:59:23;;;;;;;21.90;13.23;;;;;;;;;;5051388;28;20040;-57
2023/06/26 08:01:51;;;;;;;23.08;12.90;;;;;;;;;;5051277;28;20025;-50
2023/06/26 08:04:18;;;;;;;22.77;12.70;;;;;;;;;;5051116;28;20047;-55
2023/06/26 08:06:44;;;;;;;22.05;13.65;;;;;;;;;;5051011;28;20025;-53
2023/06/26 08:09:11;;;;;;;26.05;13.43;;;;;;;;;;5050107;28;20508;-54
2023/06/26 08:11:38;;;;;;;24.23;12.48;;;;;;;;;;5051182;28;20528;-56
2023/06/26 08:14:04;;;;;;;23.75;12.75;;;;;;;;;;5050906;28;20037;-57
2023/06/26 08:16:30;;;;;;;23.95;13.27;;;;;;;;;;5051104;28;20039;-53
2023/06/26 08:18:56;;;;;;;26.42;13.77;;;;;;;;;;5053475;28;20029;-54
2023/06/26 08:21:22;;;;;;;28.15;14.30;;;;;;;;;;5050674;28;20021;-53
2023/06/26 08:23:48;;;;;;;21.88;13.93;;;;;;;;;;5060774;28;20064;-55
2023/06/26 08:26:14;;;;;;;21.52;14.02;;;;;;;;;;5067113;28;20056;-53
2023/06/26 08:28:40;;;;;;;22.85;13.82;;;;;;;;;;5070347;28;20024;-53
2023/06/26 08:31:06;;;;;;;24.88;13.63;;;;;;;;;;5050771;28;20029;-55
2023/06/26 08:33:32;;;;;;;23.65;13.75;;;;;;;;;;5050469;28;20025;-53
2023/06/26 08:35:58;;;;;;;23.52;12.95;;;;;;;;;;5050143;28;20062;-52
2023/06/26 08:38:24;;;;;;;22.30;12.95;;;;;;;;;;5050192;28;20028;-53
2023/06/26 08:40:50;;;;;;;21.35;13.38;;;;;;;;;;5050346;28;20033;-52
2023/06/26 08:43:16;;;;;;;24.75;12.85;;;;;;;;;;5050190;28;20028;-53
2023/06/26 08:45:42;;;;;;;24.45;14.05;;;;;;;;;;5049925;28;20511;-53
2023/06/26 08:48:09;;;;;;;21.48;12.68;;;;;;;;;;5050309;28;20493;-54
2023/06/26 08:50:36;;;;;;;24.05;13.90;;;;;;;;;;5048631;28;20044;-51
2023/06/26 08:53:04;;;;;;;23.45;13.43;;;;;;;;;;5049959;28;20065;-54
2023/06/26 08:55:31;;;;;;;25.45;14.88;;;;;;;;;;5048467;28;20025;-51
2023/06/26 08:57:58;;;;;;;23.55;13.77;;;;;;;;;;5050264;28;20404;-54
2023/06/26 09:00:24;;;;;;;20.98;12.32;;;;;;;;;;5051019;28;20037;-50
2023/06/26 09:02:50;;;;;;;20.55;13.32;;;;;;;;;;5054296;28;20059;-52
2023/06/26 09:05:16;;;;;;;21.70;12.65;;;;;;;;;;5054171;28;20043;-50
2023/06/26 09:07:42;;;;;;;24.73;13.20;;;;;;;;;;5052877;28;20029;-50
2023/06/26 09:10:08;;;;;;;23.23;12.48;;;;;;;;;;5054169;28;20048;-53
2023/06/26 09:12:35;;;;;;;23.75;13.73;;;;;;;;;;5054059;28;20048;-50
2023/06/26 09:15:03;;;;;;;20.33;12.10;;;;;;;;;;5053738;28;20057;-51
2023/06/26 09:17:30;;;;;;;20.30;12.73;;;;;;;;;;5054256;28;20480;-53
2023/06/26 09:19:56;;;;;;;20.48;12.95;;;;;;;;;;5053994;28;20025;-52
2023/06/26 09:22:22;;;;;;;24.90;12.63;;;;;;;;;;5053909;28;20462;-50
2023/06/26 09:24:48;;;;;;;24.13;11.57;;;;;;;;;;5053753;28;20025;-51
2023/06/26 09:27:14;;;;;;;20.80;11.93;;;;;;;;;;5053722;28;20040;-53
2023/06/26 09:29:40;;;;;;;19.15;12.05;;;;;;;;;;5053789;28;20024;-58
2023/06/26 09:32:09;;;;;;;24.30;11.43;;;;;;;;;;5053749;28;20021;-58
2023/06/26 09:34:35;;;;;;;21.05;11.73;;;;;;;;;;5053340;28;20029;-60
2023/06/26 09:37:02;;;;;;;20.65;12.98;;;;;;;;;;5053798;28;20472;-61
2023/06/26 09:39:30;;;;;;;19.48;11.50;;;;;;;;;;5053418;28;20024;-57
2023/06/26 09:41:57;;;;;;;19.00;12.18;;;;;;;;;;5055342;28;20028;-55
2023/06/26 09:44:23;;;;;;;19.50;12.43;;;;;;;;;;5053537;28;20021;-58
2023/06/26 09:46:49;;;;;;;19.25;12.52;;;;;;;;;;5053292;28;20045;-55
2023/06/26 09:49:16;;;;;;;21.30;12.32;;;;;;;;;;5053543;28;20077;-57
2023/06/26 09:51:42;;;;;;;18.02;11.48;;;;;;;;;;5053345;28;20040;-57
2023/06/26 09:54:09;;;;;;;21.65;12.32;;;;;;;;;;5053404;28;20021;-57
2023/06/26 09:56:35;;;;;;;18.23;11.18;;;;;;;;;;5053106;28;20021;-57
2023/06/26 09:59:02;;;;;;;18.30;11.27;;;;;;;;;;5053150;28;20091;-58
2023/06/26 10:01:29;;;;;;;19.50;12.75;;;;;;;;;;5053006;28;20029;-53
2023/06/26 10:03:58;;;;;;;18.48;12.10;;;;;;;;;;5052940;28;20024;-59
2023/06/26 10:06:37;;;;;;;18.27;12.30;;;;;;;;;;5053052;28;20060;-55
2023/06/26 10:09:04;;;;;;;19.65;12.15;;;;;;;;;;5052949;28;20087;-57
2023/06/26 10:11:35;;;;;;;18.75;12.00;;;;;;;;;;5052566;28;20024;-54
2023/06/26 10:14:02;;;;;;;16.90;11.70;;;;;;;;;;5052266;28;20029;-56
2023/06/26 10:16:29;;;;;;;17.77;12.18;;;;;;;;;;5052981;28;20047;-56
2023/06/26 10:18:57;;;;;;;18.48;11.70;;;;;;;;;;5051435;28;20388;-55
2023/06/26 10:21:23;;;;;;;18.85;12.15;;;;;;;;;;5052838;28;20056;-56
2023/06/26 10:23:52;;;;;;;17.73;12.75;;;;;;;;;;5052845;28;20120;-56
2023/06/26 10:26:20;;;;;;;18.05;13.15;;;;;;;;;;5052587;28;20039;-54
2023/06/26 10:28:48;;;;;;;19.48;12.93;;;;;;;;;;5052960;28;20026;-58
2023/06/26 10:31:14;;;;;;;18.48;12.82;;;;;;;;;;5052975;28;20040;-54
2023/06/26 10:33:40;;;;;;;18.65;12.80;;;;;;;;;;5051473;28;20025;-54
2023/06/26 10:36:14;;;;;;;17.00;13.13;;;;;;;;;;5052767;28;20017;-58
2023/06/26 10:38:51;;;;;;;19.75;13.57;;;;;;;;;;5058975;28;20043;-52
2023/06/26 10:41:20;;;;;;;18.30;13.23;;;;;;;;;;5072294;28;20035;-56
2023/06/26 10:43:47;;;;;;;18.02;13.18;;;;;;;;;;5063811;28;20039;-59
2023/06/26 10:46:15;;;;;;;20.23;13.40;;;;;;;;;;5068001;28;20039;-59
2023/06/26 10:48:41;;;;;;;;;;;;;;;;;;5063089;28;20272;-59
2023/06/26 10:51:15;;;;;;;18.33;13.20;;;;;;;;;;5072016;28;19908;-56
2023/06/26 10:53:43;;;;;;;18.92;13.70;;;;;;;;;;5072277;28;20464;-58
2023/06/26 10:56:09;;;;;;;18.42;13.32;;;;;;;;;;5064641;28;20044;-57
2023/06/26 10:58:35;;;;;;;17.38;13.30;;;;;;;;;;5051788;28;20124;-59
2023/06/26 11:01:21;;;;;;;18.83;13.10;;;;;;;;;;5053157;28;20031;-60
2023/06/26 11:04:01;;;;;;;18.25;12.75;;;;;;;;;;5052691;28;20051;-59
2023/06/26 11:06:27;;;;;;;18.15;13.50;;;;;;;;;;5068242;28;20056;-60
2023/06/26 11:08:54;;;;;;;17.08;12.85;;;;;;;;;;5063916;28;20040;-60
2023/06/26 11:11:21;;;;;;;20.65;13.10;;;;;;;;;;5071882;28;20388;-59
2023/06/26 11:13:47;;;;;;;18.88;13.00;;;;;;;;;;5063433;28;20017;-56
2023/06/26 11:16:14;;;;;;;16.92;12.65;;;;;;;;;;5071536;28;20056;-57
2023/06/26 11:18:41;;;;;;;16.80;12.02;;;;;;;;;;5071795;28;20032;-59
2023/06/26 11:21:08;;;;;;;19.60;12.68;;;;;;;;;;5071446;28;20392;-60
2023/06/26 11:23:35;;;;;;;18.50;13.07;;;;;;;;;;5069244;28;20070;-54
2023/06/26 11:26:17;;;;;;;17.02;12.88;;;;;;;;;;5069310;28;20300;-58
2023/06/26 11:28:46;;;;;;;17.40;13.45;;;;;;;;;;5069340;28;20484;-56
2023/06/26 11:31:24;;;;;;;18.27;13.52;;;;;;;;;;5069725;28;20098;-59
2023/06/26 11:33:50;;;;;;;17.65;13.43;;;;;;;;;;5069617;28;20108;-57
2023/06/26 11:36:16;;;;;;;16.83;13.55;;;;;;;;;;5069515;28;20135;-57
2023/06/26 11:38:42;;;;;;;16.65;12.77;;;;;;;;;;5069370;28;21012;-57
2023/06/26 11:41:08;;;;;;;18.42;13.18;;;;;;;;;;5061359;28;20500;-58
2023/06/26 11:43:35;;;;;;;19.05;13.25;;;;;;;;;;5070901;28;20029;-55
2023/06/26 11:46:01;;;;;;;19.77;12.95;;;;;;;;;;5069264;28;20025;-57
2023/06/26 11:48:27;;;;;;;17.42;13.10;;;;;;;;;;5070722;28;20028;-53
2023/06/26 11:50:53;;;;;;;17.75;13.38;;;;;;;;;;5071012;28;20020;-57
2023/06/26 11:53:19;;;;;;;17.65;14.02;;;;;;;;;;5070516;28;20021;-52
2023/06/26 11:55:45;;;;;;;17.10;14.23;;;;;;;;;;5069883;28;20024;-57
2023/06/26 11:58:11;;;;;;;19.50;14.55;;;;;;;;;;5070669;28;20066;-52
2023/06/26 12:00:42;;;;;;;17.42;13.85;;;;;;;;;;5070547;28;20345;-56
2023/06/26 12:03:08;;;;;;;17.63;14.07;;;;;;;;;;5070589;28;20032;-53
2023/06/26 12:05:34;;;;;;;17.85;14.50;;;;;;;;;;5070483;28;20123;-56
2023/06/26 12:08:01;;;;;;;19.15;14.40;;;;;;;;;;5069158;28;20031;-51
2023/06/26 12:10:27;;;;;;;17.70;13.82;;;;;;;;;;5070446;28;20016;-53
2023/06/26 12:12:56;;;;;;;18.67;14.23;;;;;;;;;;5070159;28;20377;-55
2023/06/26 12:15:22;;;;;;;;;;;;;;;;;;5071015;28;20070;-55
2023/06/26 12:17:48;;;;;;;17.63;13.57;;;;;;;;;;5070724;28;19908;-52
2023/06/26 12:20:21;;;;;;;16.58;13.45;;;;;;;;;;5069126;28;20059;-53
2023/06/26 12:22:50;;;;;;;17.73;13.20;;;;;;;;;;5066010;28;20036;-57
2023/06/26 12:25:21;;;;;;;19.58;13.30;;;;;;;;;;5064840;28;20377;-56
2023/06/26 12:27:47;;;;;;;16.92;12.90;;;;;;;;;;5067938;28;20025;-54
2023/06/26 12:30:13;;;;;;;18.65;13.57;;;;;;;;;;5067473;28;20396;-52
2023/06/26 12:32:39;;;;;;;17.77;13.77;;;;;;;;;;5062680;28;20036;-55
2023/06/26 12:35:06;;;;;;;18.63;13.52;;;;;;;;;;5070959;28;20473;-54
2023/06/26 12:37:37;;;;;;;18.33;13.40;;;;;;;;;;5075154;28;20103;-56
2023/06/26 12:40:06;;;;;;;19.05;13.18;;;;;;;;;;5073678;28;20035;-54
2023/06/26 12:42:34;;;;;;;18.55;12.98;;;;;;;;;;5069286;28;20024;-54
2023/06/26 12:45:00;;;;;;;16.15;12.93;;;;;;;;;;5075010;28;20453;-55
2023/06/26 12:47:26;;;;;;;18.42;13.50;;;;;;;;;;5074090;28;20119;-54
2023/06/26 12:49:53;;;;;;;20.58;14.52;;;;;;;;;;5065666;28;20024;-56
2023/06/26 12:52:19;;;;;;;20.10;13.82;;;;;;;;;;5063167;28;20024;-56
2023/06/26 12:54:46;;;;;;;16.92;13.60;;;;;;;;;;5063141;28;20507;-56
2023/06/26 12:57:16;;;;;;;18.58;13.65;;;;;;;;;;5064112;28;20154;-58
2023/06/26 12:59:43;;;;;;;17.17;13.38;;;;;;;;;;5054158;28;20029;-52
2023/06/26 13:02:11;;;;;;;17.65;13.35;;;;;;;;;;5054389;28;20021;-55
2023/06/26 13:04:39;;;;;;;17.80;13.65;;;;;;;;;;5054189;28;20054;-53
2023/06/26 13:07:05;;;;;;;18.05;13.48;;;;;;;;;;5054121;28;20036;-57
2023/06/26 13:09:33;;;;;;;17.88;12.40;;;;;;;;;;5054424;28;20473;-60
2023/06/26 13:11:59;;;;;;;17.45;12.80;;;;;;;;;;5053158;28;20036;-56
2023/06/26 13:14:25;;;;;;;16.92;12.82;;;;;;;;;;5052066;28;20163;-58
2023/06/26 13:16:52;;;;;;;16.35;12.80;;;;;;;;;;5054363;28;20032;-59
2023/06/26 13:19:18;;;;;;;16.42;13.32;;;;;;;;;;5053846;28;20492;-59
2023/06/26 13:21:44;;;;;;;17.17;12.90;;;;;;;;;;5053837;28;20040;-55
2023/06/26 13:24:10;;;;;;;19.48;13.52;;;;;;;;;;5054114;28;20455;-58
2023/06/26 13:26:36;;;;;;;16.52;12.32;;;;;;;;;;5054299;28;20099;-55
2023/06/26 13:29:03;;;;;;;16.45;12.15;;;;;;;;;;5054102;28;20028;-60
2023/06/26 13:31:29;;;;;;;18.52;13.02;;;;;;;;;;5053860;28;20120;-57
2023/06/26 13:33:58;;;;;;;17.08;12.73;;;;;;;;;;5053850;28;20465;-52
2023/06/26 13:36:24;;;;;;;18.48;12.60;;;;;;;;;;5053576;28;20481;-59
2023/06/26 13:38:55;;;;;;;16.58;12.85;;;;;;;;;;5053219;28;20041;-55
2023/06/26 13:41:21;;;;;;;17.17;13.30;;;;;;;;;;5061585;28;20382;-56
2023/06/26 13:43:47;;;;;;;16.73;13.48;;;;;;;;;;5064397;28;20720;-58
2023/06/26 13:46:13;;;;;;;17.42;12.98;;;;;;;;;;4718929;28;9999877;-57
2023/06/26 13:48:39;;;;;;;17.73;13.27;;;;;;;;;;5060629;28;20473;-59
2023/06/26 13:51:05;;;;;;;17.90;13.38;;;;;;;;;;5067226;28;20024;-60
2023/06/26 13:53:31;;;;;;;16.20;13.00;;;;;;;;;;5068488;28;20020;-61
2023/06/26 13:55:57;;;;;;;15.70;12.93;;;;;;;;;;5062028;28;20020;-56
2023/06/26 13:58:26;;;;;;;16.30;13.23;;;;;;;;;;5062754;28;20144;-58
2023/06/26 14:00:52;;;;;;;16.73;13.27;;;;;;;;;;5060888;28;20024;-57
2023/06/26 14:03:18;;;;;;;17.30;12.90;;;;;;;;;;5064330;28;20150;-56
2023/06/26 14:05:44;;;;;;;16.45;12.85;;;;;;;;;;5054326;28;20035;-57
2023/06/26 14:08:10;;;;;;;17.35;12.88;;;;;;;;;;5067696;28;20423;-57
2023/06/26 14:10:36;;;;;;;19.13;13.18;;;;;;;;;;5068293;28;20043;-54
2023/06/26 14:13:03;;;;;;;17.67;12.77;;;;;;;;;;5060990;28;20021;-57
2023/06/26 14:15:29;;;;;;;17.10;13.10;;;;;;;;;;5069330;28;20021;-56
2023/06/26 14:17:56;;;;;;;17.08;12.68;;;;;;;;;;5070782;28;20408;-55